createdAt,value
2023-04-28T00:00:14.311Z,10.67
2023-04-28T00:02:44.177Z,10.20
2023-04-28T00:05:13.620Z,9.80
2023-04-28T00:07:42.093Z,10.00
2023-04-28T00:10:11.430Z,11.13
2023-04-28T00:12:39.864Z,13.27
2023-04-28T00:15:09.303Z,13.97
2023-04-28T00:17:37.803Z,13.37
2023-04-28T00:20:09.093Z,13.07
2023-04-28T00:22:37.453Z,14.67
2023-04-28T00:25:06.659Z,11.23
2023-04-28T00:27:35.568Z,13.70
2023-04-28T00:30:04.490Z,11.20
2023-04-28T00:32:34.280Z,10.17
2023-04-28T00:35:03.251Z,12.53
2023-04-28T00:37:36.749Z,11.83
2023-04-28T00:40:05.948Z,9.87
2023-04-28T00:42:34.234Z,14.27
2023-04-28T00:45:06.683Z,14.47
2023-04-28T00:47:35.804Z,12.10
2023-04-28T00:50:06.882Z,11.03
2023-04-28T00:52:37.619Z,12.03
2023-04-28T00:55:07.331Z,10.53
2023-04-28T00:57:35.856Z,11.00
2023-04-28T01:00:04.792Z,10.37
2023-04-28T01:02:33.791Z,9.83
2023-04-28T01:05:03.552Z,10.87
2023-04-28T01:07:32.535Z,11.80
2023-04-28T01:10:03.702Z,11.87
2023-04-28T01:12:33.801Z,11.63
2023-04-28T01:15:02.335Z,10.00
2023-04-28T01:17:33.193Z,11.00
2023-04-28T01:20:04.719Z,12.50
2023-04-28T01:22:33.315Z,9.63
2023-04-28T01:25:04.054Z,9.80
2023-04-28T01:27:32.483Z,10.90
2023-04-28T01:30:01.249Z,12.03
2023-04-28T01:32:29.860Z,11.83
2023-04-28T01:34:58.304Z,10.50
2023-04-28T01:37:26.599Z,9.93
2023-04-28T01:39:55.747Z,8.80
2023-04-28T01:42:25.454Z,10.33
2023-04-28T01:44:54.292Z,9.47
2023-04-28T01:47:22.617Z,8.33
2023-04-28T01:49:51.120Z,8.80
2023-04-28T01:52:22.641Z,11.90
2023-04-28T01:54:51.048Z,10.93
2023-04-28T01:57:20.587Z,8.20
2023-04-28T01:59:52.130Z,7.70
2023-04-28T02:02:20.636Z,10.90
2023-04-28T02:04:49.079Z,8.90
2023-04-28T02:07:18.330Z,8.10
2023-04-28T02:09:46.745Z,7.97
2023-04-28T02:12:15.026Z,10.10
2023-04-28T02:14:43.324Z,8.37
2023-04-28T02:17:13.035Z,8.67
2023-04-28T02:19:41.346Z,7.70
2023-04-28T02:22:09.726Z,11.40
2023-04-28T02:24:38.646Z,10.63
2023-04-28T02:27:07.125Z,8.33
2023-04-28T02:29:35.392Z,9.00
2023-04-28T02:32:04.516Z,8.97
2023-04-28T02:34:34.196Z,9.03
2023-04-28T02:37:03.381Z,8.50
2023-04-28T02:39:33.023Z,9.20
2023-04-28T02:42:01.501Z,10.80
2023-04-28T02:44:29.745Z,10.83
2023-04-28T02:46:58.055Z,10.57
2023-04-28T02:49:28.002Z,7.43
2023-04-28T02:51:57.949Z,8.90
2023-04-28T02:54:28.521Z,8.53
2023-04-28T02:56:59.118Z,9.00
2023-04-28T02:59:28.209Z,8.03
2023-04-28T03:01:56.723Z,7.60
2023-04-28T03:04:25.312Z,8.27
2023-04-28T03:06:54.042Z,9.93
2023-04-28T03:09:23.780Z,8.70
2023-04-28T03:11:52.128Z,9.50
2023-04-28T03:14:20.922Z,7.77
2023-04-28T03:16:49.365Z,7.73
2023-04-28T03:19:17.791Z,11.37
2023-04-28T03:21:47.805Z,13.30
2023-04-28T03:24:16.581Z,7.77
2023-04-28T03:26:47.244Z,9.83
2023-04-28T03:29:16.138Z,7.67
2023-04-28T03:31:44.534Z,8.10
2023-04-28T03:34:12.841Z,9.17
2023-04-28T03:36:41.147Z,8.10
2023-04-28T03:39:17.316Z,7.20
2023-04-28T03:41:47.078Z,7.80
2023-04-28T03:44:33.844Z,10.73
2023-04-28T03:47:03.060Z,10.10
2023-04-28T03:49:31.763Z,7.17
2023-04-28T03:52:00.585Z,9.33
2023-04-28T03:54:30.999Z,8.63
2023-04-28T03:57:02.358Z,6.90
2023-04-28T03:59:33.674Z,6.70
2023-04-28T04:02:01.991Z,6.73
2023-04-28T04:04:32.587Z,6.00
2023-04-28T04:07:01.509Z,6.80
2023-04-28T04:09:31.014Z,7.17
2023-04-28T04:12:01.383Z,6.37
2023-04-28T04:14:31.253Z,5.80
2023-04-28T04:16:59.597Z,6.53
2023-04-28T04:19:28.221Z,6.67
2023-04-28T04:21:57.288Z,7.10
2023-04-28T04:24:25.708Z,7.37
2023-04-28T04:26:54.396Z,6.13
2023-04-28T04:29:42.970Z,5.83
2023-04-28T04:32:15.708Z,8.93
2023-04-28T04:34:44.918Z,8.27
2023-04-28T04:37:13.382Z,4.80
2023-04-28T04:39:51.626Z,3.67
2023-04-28T04:42:25.490Z,4.00
2023-04-28T04:45:11.395Z,3.53
2023-04-28T04:47:39.782Z,3.60
2023-04-28T04:50:09.424Z,3.97
2023-04-28T04:52:38.378Z,3.10
2023-04-28T04:55:07.800Z,3.67
2023-04-28T04:57:36.187Z,3.70
2023-04-28T05:00:13.827Z,2.70
2023-04-28T05:02:43.715Z,4.53
2023-04-28T05:07:50.561Z,4.40
2023-04-28T05:10:19.014Z,3.80
2023-04-28T05:12:49.148Z,2.87
2023-04-28T05:15:20.773Z,3.77
2023-04-28T05:18:11.370Z,4.03
2023-04-28T05:20:39.827Z,3.87
2023-04-28T05:23:08.244Z,4.27
2023-04-28T05:25:36.618Z,3.00
2023-04-28T05:28:07.685Z,3.37
2023-04-28T05:30:37.625Z,3.87
2023-04-28T05:33:06.155Z,2.50
2023-04-28T05:35:34.946Z,3.80
2023-04-28T05:38:04.205Z,3.43
2023-04-28T05:40:32.721Z,2.27
2023-04-28T05:43:02.270Z,4.10
2023-04-28T05:45:31.204Z,2.93
2023-04-28T05:48:23.916Z,3.00
2023-04-28T05:51:19.650Z,4.37
2023-04-28T05:54:12.280Z,5.33
2023-04-28T05:57:49.783Z,2.47
2023-04-28T06:04:23.359Z,3.30
2023-04-28T06:07:02.577Z,4.40
2023-04-28T06:09:48.168Z,5.13
2023-04-28T06:12:34.364Z,6.37
2023-04-28T06:15:16.960Z,4.67
2023-04-28T06:18:02.064Z,4.57
2023-04-28T06:21:01.990Z,4.63
2023-04-28T06:23:43.937Z,5.00
2023-04-28T06:26:32.260Z,4.07
2023-04-28T06:29:22.840Z,3.20
2023-04-28T06:32:06.488Z,2.67
2023-04-28T06:35:22.182Z,2.33
2023-04-28T06:38:21.750Z,3.00
2023-04-28T06:41:27.788Z,1.87
2023-04-28T06:45:01.702Z,2.67
2023-04-28T06:47:32.092Z,1.47
2023-04-28T06:50:01.882Z,3.53
2023-04-28T06:52:39.334Z,3.13
2023-04-28T06:55:11.033Z,1.70
2023-04-28T06:57:39.763Z,1.73
2023-04-28T07:00:09.668Z,1.87
2023-04-28T07:02:38.778Z,2.87
2023-04-28T07:05:08.224Z,1.30
2023-04-28T07:07:38.764Z,1.97
2023-04-28T07:10:10.810Z,2.27
2023-04-28T07:12:40.630Z,4.17
2023-04-28T07:15:10.479Z,1.33
2023-04-28T07:17:39.657Z,2.43
2023-04-28T07:20:09.544Z,3.30
2023-04-28T07:22:38.698Z,2.23
2023-04-28T07:25:07.716Z,1.83
2023-04-28T07:27:37.884Z,1.37
2023-04-28T07:30:18.990Z,1.63
2023-04-28T07:32:54.947Z,1.27
2023-04-28T07:35:27.891Z,1.87
2023-04-28T07:37:58.746Z,2.87
2023-04-28T07:40:30.408Z,1.87
2023-04-28T07:43:00.439Z,1.40
2023-04-28T07:45:29.149Z,2.30
2023-04-28T07:47:57.828Z,1.63
2023-04-28T07:50:26.617Z,2.13
2023-04-28T07:52:55.175Z,4.17
2023-04-28T07:55:23.834Z,2.50
2023-04-28T07:57:52.580Z,1.63
2023-04-28T08:00:22.584Z,3.23
2023-04-28T08:02:51.414Z,2.87
2023-04-28T08:05:20.363Z,1.70
2023-04-28T08:07:49.103Z,6.97
2023-04-28T08:10:17.717Z,3.00
2023-04-28T08:12:46.444Z,2.17
2023-04-28T08:15:16.608Z,1.97
2023-04-28T08:17:48.016Z,2.43
2023-04-28T08:20:21.061Z,3.33
2023-04-28T08:22:50.991Z,2.90
2023-04-28T08:25:19.631Z,4.07
2023-04-28T08:27:48.465Z,2.53
2023-04-28T08:30:17.132Z,2.43
2023-04-28T08:32:47.562Z,3.33
2023-04-28T08:35:16.665Z,2.67
2023-04-28T08:37:45.500Z,3.17
2023-04-28T08:40:14.516Z,3.70
2023-04-28T08:42:45.942Z,2.20
2023-04-28T08:45:15.798Z,3.50
2023-04-28T08:47:47.709Z,2.57
2023-04-28T08:50:22.647Z,3.13
2023-04-28T08:52:53.655Z,3.97
2023-04-28T08:55:22.979Z,2.53
2023-04-28T08:57:52.788Z,2.10
2023-04-28T09:00:21.471Z,1.93
2023-04-28T09:02:50.207Z,4.67
2023-04-28T09:05:20.597Z,1.90
2023-04-28T09:07:52.000Z,4.47
2023-04-28T09:10:22.232Z,2.23
2023-04-28T09:12:53.667Z,3.73
2023-04-28T09:15:34.023Z,4.67
2023-04-28T09:18:03.783Z,4.83
2023-04-28T09:20:35.146Z,2.33
2023-04-28T09:23:17.644Z,6.07
2023-04-28T09:26:01.404Z,3.43
2023-04-28T09:28:30.083Z,3.47
2023-04-28T09:30:58.806Z,3.47
2023-04-28T09:33:27.664Z,2.83
2023-04-28T09:35:57.877Z,3.90
2023-04-28T09:38:27.287Z,2.93
2023-04-28T09:40:58.656Z,2.30
2023-04-28T09:43:32.822Z,5.53
2023-04-28T09:46:03.489Z,4.13
2023-04-28T09:48:33.975Z,2.93
2023-04-28T09:51:06.264Z,4.63
2023-04-28T09:53:35.810Z,2.60
2023-04-28T09:56:06.540Z,2.70
2023-04-28T09:58:41.475Z,3.47
2023-04-28T10:01:13.007Z,3.57
2023-04-28T10:03:42.604Z,4.40
2023-04-28T10:06:12.635Z,3.97
2023-04-28T10:08:41.792Z,3.73
2023-04-28T10:11:10.563Z,3.27
2023-04-28T10:13:39.160Z,2.30
2023-04-28T10:16:09.350Z,7.37
2023-04-28T10:18:38.992Z,3.60
2023-04-28T10:21:09.458Z,5.43
2023-04-28T10:24:00.799Z,3.43
2023-04-28T10:26:52.793Z,4.47
2023-04-28T10:29:25.419Z,2.07
2023-04-28T10:32:29.042Z,2.07
2023-04-28T10:35:31.059Z,2.80
2023-04-28T10:38:06.441Z,3.60
2023-04-28T10:40:37.122Z,2.30
2023-04-28T10:43:06.196Z,2.80
2023-04-28T10:46:11.557Z,2.60
2023-04-28T10:49:06.947Z,3.27
2023-04-28T10:51:36.533Z,2.73
2023-04-28T10:54:19.405Z,1.70
2023-04-28T10:57:21.556Z,4.90
2023-04-28T10:59:51.589Z,3.07
2023-04-28T11:02:43.750Z,1.90
2023-04-28T11:05:19.368Z,5.47
2023-04-28T11:08:30.723Z,4.87
2023-04-28T11:11:27.113Z,4.60
2023-04-28T11:14:32.184Z,2.63
2023-04-28T11:17:03.225Z,7.87
2023-04-28T11:19:33.596Z,3.07
2023-04-28T11:22:03.740Z,2.87
2023-04-28T11:24:32.921Z,3.83
2023-04-28T11:27:02.458Z,2.73
2023-04-28T11:29:36.995Z,3.23
2023-04-28T11:32:06.266Z,4.67
2023-04-28T11:34:35.543Z,4.97
2023-04-28T11:37:05.958Z,2.83
2023-04-28T11:39:35.978Z,2.90
2023-04-28T11:42:11.518Z,2.93
2023-04-28T11:44:41.649Z,22.17
2023-04-28T11:47:10.349Z,11.20
2023-04-28T11:49:49.466Z,5.37
2023-04-28T11:52:18.185Z,2.37
2023-04-28T11:54:46.905Z,7.33
2023-04-28T11:57:20.127Z,2.83
2023-04-28T12:03:24.768Z,2.93
2023-04-28T12:05:53.673Z,1.60
2023-04-28T12:08:29.733Z,4.37
2023-04-28T12:11:20.107Z,2.53
2023-04-28T12:14:04.439Z,6.00
2023-04-28T12:16:44.131Z,3.00
2023-04-28T12:19:15.274Z,3.80
2023-04-28T12:21:44.369Z,3.33
2023-04-28T12:24:21.214Z,3.83
2023-04-28T12:26:50.058Z,3.33
2023-04-28T12:29:41.393Z,3.90
2023-04-28T12:32:13.042Z,2.77
2023-04-28T12:34:43.037Z,5.47
2023-04-28T12:37:12.362Z,2.30
2023-04-28T12:39:43.382Z,4.20
2023-04-28T12:42:12.365Z,5.13
2023-04-28T12:44:40.906Z,3.63
2023-04-28T12:47:12.309Z,5.03
2023-04-28T12:49:41.645Z,3.30
2023-04-28T12:52:10.326Z,2.57
2023-04-28T12:54:38.905Z,3.23
2023-04-28T12:57:07.403Z,4.73
2023-04-28T12:59:36.117Z,3.87
2023-04-28T13:02:04.857Z,3.17
2023-04-28T13:04:34.861Z,4.47
2023-04-28T13:07:04.033Z,2.97
2023-04-28T13:09:32.607Z,3.93
2023-04-28T13:12:03.084Z,3.20
2023-04-28T13:14:32.859Z,3.17
2023-04-28T13:17:01.706Z,3.53
2023-04-28T13:19:31.291Z,4.27
2023-04-28T13:22:05.172Z,3.30
2023-04-28T13:24:34.629Z,3.27
2023-04-28T13:27:04.183Z,3.97
2023-04-28T13:29:32.722Z,3.80
2023-04-28T13:32:01.303Z,4.47
2023-04-28T13:34:29.773Z,3.47
2023-04-28T13:36:58.326Z,4.10
2023-04-28T13:39:28.184Z,3.27
2023-04-28T13:41:56.715Z,4.30
2023-04-28T13:44:25.213Z,6.07
2023-04-28T13:46:54.711Z,3.43
2023-04-28T13:49:24.007Z,5.27
2023-04-28T13:51:52.455Z,4.43
2023-04-28T13:54:21.438Z,5.57
2023-04-28T13:56:51.463Z,3.33
2023-04-28T13:59:20.265Z,3.23
2023-04-28T14:01:48.725Z,3.83
2023-04-28T14:04:17.424Z,6.83
2023-04-28T14:06:46.008Z,4.23
2023-04-28T14:09:14.362Z,3.43
2023-04-28T14:11:42.827Z,4.00
2023-04-28T14:14:12.684Z,3.40
2023-04-28T14:16:41.136Z,4.30
2023-04-28T14:19:09.799Z,3.53
2023-04-28T14:21:38.426Z,5.00
2023-04-28T14:24:07.691Z,3.30
2023-04-28T14:26:36.401Z,3.83
2023-04-28T14:29:05.852Z,6.23
2023-04-28T14:31:36.002Z,4.73
2023-04-28T14:34:05.280Z,5.17
2023-04-28T14:36:34.503Z,5.37
2023-04-28T14:39:03.066Z,5.53
2023-04-28T14:41:31.605Z,6.20
2023-04-28T14:44:00.271Z,3.40
2023-04-28T14:46:29.164Z,4.40
2023-04-28T14:48:59.596Z,6.10
2023-04-28T14:51:28.115Z,4.70
2023-04-28T14:53:56.627Z,6.00
2023-04-28T14:56:25.298Z,8.13
2023-04-28T14:58:54.418Z,4.30
2023-04-28T15:01:22.984Z,4.37
2023-04-28T15:03:51.748Z,5.20
2023-04-28T15:06:23.358Z,4.47
2023-04-28T15:08:52.468Z,5.00
2023-04-28T15:11:20.990Z,5.77
2023-04-28T15:13:49.417Z,5.57
2023-04-28T15:16:17.941Z,6.13
2023-04-28T15:18:47.287Z,6.17
2023-04-28T15:21:18.728Z,5.93
2023-04-28T15:23:48.825Z,5.63
2023-04-28T15:26:17.224Z,4.90
2023-04-28T15:28:45.716Z,6.07
2023-04-28T15:31:14.134Z,6.07
2023-04-28T15:33:42.703Z,4.80
2023-04-28T15:36:11.492Z,5.60
2023-04-28T15:38:40.020Z,8.03
2023-04-28T15:41:09.845Z,6.33
2023-04-28T15:43:38.532Z,5.20
2023-04-28T15:46:09.394Z,5.93
2023-04-28T15:48:38.459Z,5.67
2023-04-28T15:51:07.123Z,5.87
2023-04-28T15:53:35.710Z,5.53
2023-04-28T15:56:05.164Z,5.23
2023-04-28T16:02:04.537Z,6.57
2023-04-28T16:04:33.340Z,6.20
2023-04-28T16:07:02.767Z,8.23
2023-04-28T16:09:31.549Z,7.93
2023-04-28T16:12:05.155Z,7.00
2023-04-28T16:14:36.532Z,5.47
2023-04-28T16:17:04.980Z,5.70
2023-04-28T16:19:33.677Z,8.37
2023-04-28T16:22:02.246Z,8.37
2023-04-28T16:24:30.786Z,7.43
2023-04-28T16:27:07.260Z,7.40
2023-04-28T16:29:40.582Z,9.03
2023-04-28T16:32:09.245Z,7.53
2023-04-28T16:34:38.070Z,8.57
2023-04-28T16:37:08.174Z,7.00
2023-04-28T16:39:36.788Z,7.30
2023-04-28T16:42:05.624Z,8.03
2023-04-28T16:44:34.394Z,7.27
2023-04-28T16:47:04.565Z,8.70
2023-04-28T16:49:33.135Z,8.37
2023-04-28T16:52:03.971Z,6.73
2023-04-28T16:54:33.541Z,6.60
2023-04-28T16:57:04.106Z,6.80
2023-04-28T16:59:34.098Z,5.70
2023-04-28T17:02:05.008Z,10.63
2023-04-28T17:04:41.462Z,6.57
2023-04-28T17:07:10.279Z,7.73
2023-04-28T17:09:38.876Z,6.27
2023-04-28T17:12:07.792Z,6.50
2023-04-28T17:14:39.196Z,7.20
2023-04-28T17:17:09.216Z,8.30
2023-04-28T17:19:37.759Z,6.57
2023-04-28T17:22:06.358Z,5.97
2023-04-28T17:24:34.879Z,7.00
2023-04-28T17:27:03.351Z,8.03
2023-04-28T17:29:32.196Z,5.97
2023-04-28T17:32:00.819Z,6.10
2023-04-28T17:34:31.132Z,6.23
2023-04-28T17:36:59.825Z,7.33
2023-04-28T17:39:28.316Z,6.07
2023-04-28T17:41:58.198Z,8.20
2023-04-28T17:44:26.909Z,6.67
2023-04-28T17:46:55.660Z,6.47
2023-04-28T17:49:25.581Z,6.47
2023-04-28T17:51:55.774Z,5.13
2023-04-28T17:54:24.439Z,8.00
2023-04-28T17:56:55.166Z,6.00
2023-04-28T17:59:23.688Z,4.97
2023-04-28T18:01:57.246Z,6.97
2023-04-28T18:04:40.190Z,7.70
2023-04-28T18:07:12.033Z,7.93
2023-04-28T18:09:40.744Z,7.53
2023-04-28T18:12:09.899Z,8.47
2023-04-28T18:14:41.020Z,8.17
2023-04-28T18:17:10.160Z,9.17
2023-04-28T18:19:53.040Z,24.40
2023-04-28T18:22:23.130Z,9.97
2023-04-28T18:24:51.960Z,11.93
2023-04-28T18:27:20.635Z,13.37
2023-04-28T18:29:49.219Z,8.87
2023-04-28T18:32:17.813Z,8.97
2023-04-28T18:34:47.360Z,10.13
2023-04-28T18:37:15.994Z,9.30
2023-04-28T18:39:45.937Z,8.90
2023-04-28T18:42:14.985Z,8.67
2023-04-28T18:44:43.450Z,10.33
2023-04-28T18:47:12.817Z,10.63
2023-04-28T18:49:41.966Z,11.63
2023-04-28T18:52:10.670Z,9.50
2023-04-28T18:54:39.231Z,10.67
2023-04-28T18:57:09.296Z,10.23
2023-04-28T18:59:39.085Z,10.33
2023-04-28T19:02:09.449Z,9.47
2023-04-28T19:04:39.357Z,10.43
2023-04-28T19:07:08.163Z,11.33
2023-04-28T19:09:37.092Z,10.10
2023-04-28T19:12:06.127Z,9.90
2023-04-28T19:14:36.197Z,10.70
2023-04-28T19:17:05.248Z,11.57
2023-04-28T19:19:35.091Z,12.73
2023-04-28T19:22:04.212Z,11.70
2023-04-28T19:24:33.739Z,12.10
2023-04-28T19:27:02.948Z,12.23
2023-04-28T19:29:31.595Z,9.97
2023-04-28T19:32:01.682Z,11.43
2023-04-28T19:34:55.681Z,12.07
2023-04-28T19:37:25.257Z,12.00
2023-04-28T19:39:54.008Z,10.70
2023-04-28T19:42:22.689Z,9.77
2023-04-28T19:44:55.656Z,9.57
2023-04-28T19:47:26.272Z,9.43
2023-04-28T19:49:54.996Z,11.00
2023-04-28T19:52:23.759Z,9.20
2023-04-28T19:54:53.240Z,8.57
2023-04-28T19:57:22.117Z,7.97
2023-04-28T19:59:50.915Z,8.07
2023-04-28T20:02:21.027Z,7.97
2023-04-28T20:04:52.757Z,8.60
2023-04-28T20:07:21.302Z,8.50
2023-04-28T20:09:52.469Z,8.47
2023-04-28T20:12:21.138Z,7.77
2023-04-28T20:14:51.024Z,7.70
2023-04-28T20:17:19.595Z,7.50
2023-04-28T20:19:48.108Z,7.23
2023-04-28T20:22:18.083Z,7.77
2023-04-28T20:24:46.539Z,7.30
2023-04-28T20:27:15.278Z,7.00
2023-04-28T20:29:43.979Z,5.90
2023-04-28T20:32:12.423Z,8.53
2023-04-28T20:34:41.411Z,7.83
2023-04-28T20:37:11.183Z,6.93
2023-04-28T20:39:41.207Z,6.10
2023-04-28T20:42:10.154Z,6.73
2023-04-28T20:44:41.158Z,6.73
2023-04-28T20:47:09.871Z,6.57
2023-04-28T20:49:38.439Z,6.50
2023-04-28T20:52:07.232Z,6.03
2023-04-28T20:54:36.869Z,6.87
2023-04-28T20:57:09.078Z,5.50
2023-04-28T20:59:38.105Z,7.47
2023-04-28T21:02:06.691Z,6.87
2023-04-28T21:04:49.048Z,5.90
2023-04-28T21:07:17.738Z,7.47
2023-04-28T21:09:46.198Z,5.43
2023-04-28T21:12:16.189Z,7.30
2023-04-28T21:14:44.635Z,6.30
2023-04-28T21:17:13.187Z,8.17
2023-04-28T21:19:41.550Z,6.40
2023-04-28T21:22:09.970Z,7.83
2023-04-28T21:24:38.457Z,6.67
2023-04-28T21:27:06.843Z,7.57
2023-04-28T21:29:36.767Z,7.03
2023-04-28T21:32:05.364Z,7.37
2023-04-28T21:34:33.749Z,7.87
2023-04-28T21:37:02.262Z,6.60
2023-04-28T21:39:30.693Z,7.63
2023-04-28T21:41:59.024Z,7.97
2023-04-28T21:44:27.367Z,8.13
2023-04-28T21:46:57.004Z,7.27
2023-04-28T21:49:25.353Z,7.03
2023-04-28T21:51:53.736Z,7.37
2023-04-28T21:54:22.041Z,8.03
2023-04-28T21:56:50.316Z,8.33
2023-04-28T21:59:19.121Z,9.70
2023-04-28T22:01:48.020Z,8.10
2023-04-28T22:04:18.278Z,9.73
2023-04-28T22:06:46.870Z,10.13
2023-04-28T22:09:15.421Z,9.60
2023-04-28T22:11:43.806Z,8.10
2023-04-28T22:14:18.178Z,9.97
2023-04-28T22:16:54.174Z,9.33
2023-04-28T22:19:23.952Z,9.00
2023-04-28T22:21:52.170Z,7.50
2023-04-28T22:24:20.545Z,7.90
2023-04-28T22:26:49.704Z,7.83
2023-04-28T22:29:18.743Z,8.20
2023-04-28T22:31:47.106Z,7.90
2023-04-28T22:34:16.791Z,7.50
2023-04-28T22:36:47.402Z,7.00
2023-04-28T22:39:16.588Z,7.37
2023-04-28T22:41:44.835Z,6.10
2023-04-28T22:44:13.038Z,7.20
2023-04-28T22:46:41.282Z,6.43
2023-04-28T22:49:09.624Z,7.97
2023-04-28T22:51:37.924Z,8.63
2023-04-28T22:54:07.513Z,6.60
2023-04-28T22:56:36.216Z,8.30
2023-04-28T22:59:05.592Z,7.50
2023-04-28T23:01:34.041Z,7.23
2023-04-28T23:04:02.752Z,7.27
2023-04-28T23:06:32.139Z,8.33
2023-04-28T23:09:00.637Z,8.03
2023-04-28T23:11:30.328Z,9.17
2023-04-28T23:13:58.608Z,9.50
2023-04-28T23:16:26.828Z,9.00
2023-04-28T23:18:55.190Z,8.90
2023-04-28T23:21:23.738Z,10.00
2023-04-28T23:23:52.057Z,11.37
2023-04-28T23:26:20.797Z,11.13
2023-04-28T23:28:50.988Z,8.37
2023-04-28T23:31:19.332Z,8.50
2023-04-28T23:33:47.613Z,10.53
2023-04-28T23:36:15.929Z,9.47
2023-04-28T23:38:44.228Z,11.17
2023-04-28T23:41:12.462Z,10.87
2023-04-28T23:43:40.793Z,11.67
2023-04-28T23:46:10.434Z,11.83
2023-04-28T23:48:38.744Z,11.23
2023-04-28T23:51:07.110Z,11.13
2023-04-28T23:53:35.435Z,12.57
2023-04-28T23:56:04.117Z,12.10
2023-04-28T23:58:32.588Z,12.17
